Time;durP1;ratioP1;P1;durP2;ratioP2;P2;SDS_P1;SDS_P2;PMS_P1;PMS_P2;Temp;Humidity;BMP_temperature;BMP_pressure;BME280_temperature;BME280_humidity;BME280_pressure;Samples;Min_cycle;Max_cycle;Signal;HPM_P1;HPM_P2
2021/11/11 05:01:21;;;;;;;42.90;21.25;;;9.00;99.90;;;;;;5577364;23;20513;-71
2021/11/11 05:03:48;;;;;;;45.83;22.10;;;9.00;99.90;;;;;;4953124;29;20201;-71
2021/11/11 05:06:16;;;;;;;45.15;21.92;;;9.00;99.90;;;;;;4953609;29;20237;-70
2021/11/11 05:08:43;;;;;;;42.13;22.65;;;9.00;99.90;;;;;;4942471;29;20261;-70
2021/11/11 05:11:11;;;;;;;38.30;21.10;;;9.00;99.90;;;;;;4926610;29;20229;-70
2021/11/11 05:13:38;;;;;;;44.20;22.75;;;9.00;99.90;;;;;;4922400;29;20206;-70
2021/11/11 05:16:06;;;;;;;47.75;22.05;;;9.00;99.90;;;;;;4914610;29;20676;-69
2021/11/11 05:18:34;;;;;;;51.47;23.15;;;9.00;99.90;;;;;;4922036;29;20223;-72
2021/11/11 05:21:01;;;;;;;41.65;23.25;;;9.00;99.90;;;;;;4915154;29;20234;-70
2021/11/11 05:23:28;;;;;;;47.13;21.70;;;9.00;99.90;;;;;;4928476;29;20202;-71
2021/11/11 05:25:55;;;;;;;43.55;23.65;;;9.00;99.90;;;;;;4934019;29;20634;-70
2021/11/11 05:28:22;;;;;;;50.85;23.30;;;9.00;99.90;;;;;;4928831;29;20301;-70
2021/11/11 05:30:49;;;;;;;50.15;25.38;;;9.00;99.90;;;;;;4915053;29;20238;-70
2021/11/11 05:33:16;;;;;;;55.45;22.25;;;9.00;99.90;;;;;;4922531;29;20262;-71
2021/11/11 05:35:44;;;;;;;50.17;25.00;;;9.00;99.90;;;;;;4929816;29;20213;-71
2021/11/11 05:38:10;;;;;;;48.85;22.70;;;9.00;99.90;;;;;;4933296;29;20214;-71
2021/11/11 05:40:37;;;;;;;48.65;23.45;;;9.00;99.90;;;;;;4932894;29;20276;-71
2021/11/11 05:43:04;;;;;;;48.90;24.42;;;9.00;99.90;;;;;;4932507;29;20289;-70
2021/11/11 05:45:30;;;;;;;49.35;23.02;;;9.00;99.90;;;;;;4922005;29;20265;-72
2021/11/11 05:47:57;;;;;;;49.08;23.27;;;9.00;99.90;;;;;;4932992;29;20218;-71
2021/11/11 05:50:24;;;;;;;50.67;22.88;;;9.00;99.90;;;;;;4931869;29;20619;-71
2021/11/11 05:52:52;;;;;;;39.20;20.80;;;9.00;99.90;;;;;;4934135;29;20281;-71
2021/11/11 05:55:19;;;;;;;45.00;21.10;;;9.00;99.90;;;;;;4933895;29;20279;-71
2021/11/11 05:57:46;;;;;;;49.42;23.17;;;9.00;99.90;;;;;;4934152;29;20300;-71
2021/11/11 06:00:16;;;;;;;42.97;22.55;;;9.00;99.90;;;;;;4930333;29;20207;-72
2021/11/11 06:02:44;;;;;;;48.58;24.15;;;9.00;99.90;;;;;;4930525;29;20225;-72
2021/11/11 06:05:11;;;;;;;41.58;22.02;;;9.00;99.90;;;;;;4929528;29;20604;-72
2021/11/11 06:07:38;;;;;;;44.53;22.35;;;9.00;99.90;;;;;;4933284;29;20679;-71
2021/11/11 06:10:07;;;;;;;46.92;21.58;;;9.00;99.90;;;;;;4933296;29;20575;-71
2021/11/11 06:12:34;;;;;;;46.13;22.02;;;9.00;99.90;;;;;;4933258;29;20234;-70
2021/11/11 06:15:00;;;;;;;47.72;24.05;;;9.00;99.90;;;;;;4933254;29;20229;-72
2021/11/11 06:17:27;;;;;;;48.38;24.45;;;9.00;99.90;;;;;;4932955;29;20209;-72
2021/11/11 06:19:54;;;;;;;53.95;23.85;;;9.00;99.90;;;;;;4933279;29;20206;-72
2021/11/11 06:22:21;;;;;;;46.47;22.77;;;9.00;99.90;;;;;;4934132;29;20301;-72
2021/11/11 06:24:48;;;;;;;39.50;21.60;;;9.00;99.90;;;;;;4924682;29;20210;-70
2021/11/11 06:27:17;;;;;;;51.72;23.10;;;9.00;99.90;;;;;;4920747;29;20206;-70
2021/11/11 06:29:44;;;;;;;44.92;22.30;;;9.00;99.90;;;;;;4932735;29;20241;-70
2021/11/11 06:32:11;;;;;;;55.08;22.38;;;9.00;99.90;;;;;;4932974;29;20230;-71
2021/11/11 06:34:38;;;;;;;46.42;23.42;;;9.00;99.90;;;;;;4927595;29;20207;-70
2021/11/11 06:37:05;;;;;;;51.40;24.73;;;9.00;99.90;;;;;;4918087;29;20213;-72
2021/11/11 06:39:31;;;;;;;52.22;24.85;;;9.10;99.90;;;;;;4931911;29;20206;-70
2021/11/11 06:41:58;;;;;;;44.65;23.33;;;9.10;99.90;;;;;;4932466;29;20225;-71
2021/11/11 06:44:26;;;;;;;52.80;24.50;;;9.10;99.90;;;;;;4929328;29;20199;-71
2021/11/11 06:46:53;;;;;;;49.75;24.10;;;9.10;99.90;;;;;;4914343;29;20238;-70
2021/11/11 06:49:20;;;;;;;44.63;24.75;;;9.10;99.90;;;;;;4930726;29;20201;-70
2021/11/11 06:51:47;;;;;;;50.53;25.85;;;9.10;99.90;;;;;;4914131;29;20637;-70
2021/11/11 06:54:13;;;;;;;46.33;24.45;;;9.10;99.90;;;;;;4927958;29;20331;-67
2021/11/11 06:56:40;;;;;;;45.05;22.58;;;9.10;99.90;;;;;;4914694;29;20203;-71
2021/11/11 06:59:07;;;;;;;47.53;24.10;;;9.10;99.90;;;;;;4930245;29;20278;-71
2021/11/11 07:01:35;;;;;;;50.75;24.30;;;9.10;99.90;;;;;;4932068;29;20717;-70
2021/11/11 07:04:02;;;;;;;51.67;23.95;;;9.20;99.90;;;;;;4947222;23;20564;-71
2021/11/11 07:06:28;;;;;;;50.42;25.35;;;9.20;99.90;;;;;;4913270;29;20276;-73
2021/11/11 07:08:55;;;;;;;51.10;23.30;;;9.20;99.90;;;;;;4899743;29;20656;-72
2021/11/11 07:11:22;;;;;;;47.90;24.25;;;9.20;99.90;;;;;;4911267;29;20214;-74
2021/11/11 07:13:48;;;;;;;49.95;26.02;;;9.20;99.90;;;;;;4907356;29;20548;-73
2021/11/11 07:16:16;;;;;;;43.30;23.55;;;9.20;99.90;;;;;;4895554;29;20219;-73
2021/11/11 07:18:44;;;;;;;43.80;23.45;;;9.20;99.90;;;;;;4881324;29;20299;-73
2021/11/11 07:21:11;;;;;;;46.55;24.38;;;9.20;99.90;;;;;;4895699;29;20211;-73
2021/11/11 07:23:37;;;;;;;47.60;22.95;;;9.20;99.90;;;;;;4902823;29;20409;-74
2021/11/11 07:26:04;;;;;;;53.90;24.40;;;9.30;99.90;;;;;;4894065;29;20235;-73
2021/11/11 07:28:31;;;;;;;46.58;23.83;;;9.30;99.90;;;;;;4880422;29;20290;-73
2021/11/11 07:30:58;;;;;;;57.05;24.83;;;9.30;99.90;;;;;;4883743;29;20620;-74
2021/11/11 07:33:25;;;;;;;47.03;23.80;;;9.40;99.90;;;;;;4896574;29;20240;-74
2021/11/11 07:35:53;;;;;;;47.17;23.85;;;9.40;99.90;;;;;;4893619;29;20321;-73
2021/11/11 07:38:21;;;;;;;47.05;23.85;;;9.40;99.90;;;;;;4899068;29;20211;-74
2021/11/11 07:40:47;;;;;;;47.30;23.75;;;9.40;99.90;;;;;;4893054;29;20303;-73
2021/11/11 07:43:14;;;;;;;44.97;24.00;;;9.40;99.90;;;;;;4880297;29;20211;-73
2021/11/11 07:45:42;;;;;;;44.65;22.17;;;9.50;99.90;;;;;;4879970;29;20239;-74
2021/11/11 07:48:08;;;;;;;45.28;23.05;;;9.50;99.90;;;;;;4860829;29;20212;-73
2021/11/11 07:50:38;;;;;;;57.42;25.27;;;9.50;99.90;;;;;;4880808;29;20216;-73
2021/11/11 07:53:09;;;;;;;42.67;22.90;;;9.50;99.90;;;;;;4886435;29;20207;-74
2021/11/11 07:55:38;;;;;;;44.45;24.10;;;9.60;99.90;;;;;;4887258;29;20220;-73
2021/11/11 07:58:04;;;;;;;45.78;24.33;;;9.60;99.90;;;;;;4882367;29;20284;-73
2021/11/11 08:00:32;;;;;;;37.25;20.35;;;9.60;99.90;;;;;;4887910;29;20282;-73
2021/11/11 08:02:59;;;;;;;40.03;20.98;;;9.70;99.90;;;;;;4876411;29;20221;-74
2021/11/11 08:05:26;;;;;;;37.17;21.02;;;9.80;99.90;;;;;;4877604;29;20240;-73
2021/11/11 08:07:53;;;;;;;36.78;20.70;;;9.80;99.90;;;;;;4884549;29;20203;-73
2021/11/11 08:10:23;;;;;;;37.97;21.58;;;9.90;99.90;;;;;;4898504;29;20267;-73
2021/11/11 08:12:50;;;;;;;33.38;19.80;;;9.90;99.90;;;;;;4880579;29;20622;-73
2021/11/11 08:15:17;;;;;;;37.85;22.60;;;9.90;99.90;;;;;;4887002;29;20311;-73
2021/11/11 08:17:44;;;;;;;39.20;25.02;;;10.00;99.90;;;;;;4895803;29;20208;-73
2021/11/11 08:20:13;;;;;;;42.28;24.15;;;10.00;99.90;;;;;;4897888;29;20671;-74
2021/11/11 08:22:40;;;;;;;40.88;25.92;;;10.00;99.90;;;;;;4893437;29;20208;-74
2021/11/11 08:25:10;;;;;;;37.60;23.98;;;10.00;99.90;;;;;;4888790;29;20302;-73
2021/11/11 08:27:39;;;;;;;36.55;21.98;;;10.10;99.90;;;;;;4894138;29;20227;-73
2021/11/11 08:30:08;;;;;;;33.92;20.73;;;10.10;99.90;;;;;;4884898;29;20604;-73
2021/11/11 08:32:35;;;;;;;29.05;18.90;;;10.10;99.90;;;;;;4888170;29;20212;-73
2021/11/11 08:35:08;;;;;;;31.73;20.50;;;10.20;99.90;;;;;;4883813;29;20231;-74
2021/11/11 08:37:35;;;;;;;37.85;22.65;;;10.30;99.90;;;;;;4897986;29;20279;-73
2021/11/11 08:40:02;;;;;;;33.28;22.45;;;10.40;99.90;;;;;;4883251;29;20254;-72
2021/11/11 08:42:29;;;;;;;32.58;21.10;;;10.50;99.90;;;;;;4881280;29;20211;-72
2021/11/11 08:44:57;;;;;;;32.92;20.27;;;10.60;99.90;;;;;;4890790;29;20231;-73
2021/11/11 08:47:24;;;;;;;30.60;19.58;;;10.60;99.90;;;;;;4891328;29;20223;-72
2021/11/11 08:49:52;;;;;;;32.08;19.45;;;10.60;99.90;;;;;;4895718;29;20248;-72
2021/11/11 08:52:20;;;;;;;32.67;18.70;;;10.50;99.90;;;;;;4877303;29;20215;-73
2021/11/11 08:54:47;;;;;;;32.40;19.70;;;10.50;99.90;;;;;;4881445;29;20223;-72
2021/11/11 08:57:14;;;;;;;30.83;19.52;;;10.50;99.90;;;;;;4875784;29;20833;-72
2021/11/11 08:59:40;;;;;;;36.63;20.08;;;10.50;99.90;;;;;;4885538;29;20258;-72
2021/11/11 09:02:10;;;;;;;32.67;18.13;;;10.50;99.90;;;;;;4882431;29;20204;-72
2021/11/11 09:04:37;;;;;;;31.88;19.65;;;10.40;99.90;;;;;;4888926;29;20597;-72
2021/11/11 09:07:04;;;;;;;33.40;20.42;;;10.40;99.90;;;;;;4879530;29;20712;-72
2021/11/11 09:09:31;;;;;;;31.42;20.55;;;10.40;99.90;;;;;;4895521;29;20207;-72
2021/11/11 09:11:58;;;;;;;41.22;20.88;;;10.40;99.90;;;;;;4890930;29;20222;-72
2021/11/11 09:14:25;;;;;;;36.83;21.00;;;10.50;99.90;;;;;;4881256;29;20230;-72
2021/11/11 09:16:51;;;;;;;27.58;17.45;;;10.50;99.90;;;;;;4882591;29;20211;-71
2021/11/11 09:19:20;;;;;;;27.45;17.92;;;10.50;99.90;;;;;;4895624;29;20211;-73
2021/11/11 09:21:46;;;;;;;27.73;18.02;;;10.60;99.90;;;;;;4895543;29;20217;-72
2021/11/11 09:24:13;;;;;;;32.20;16.30;;;10.60;99.90;;;;;;4896783;29;20230;-72
2021/11/11 09:26:40;;;;;;;26.42;17.98;;;10.70;99.90;;;;;;4880411;29;20240;-72
2021/11/11 09:29:08;;;;;;;22.98;15.38;;;10.70;99.90;;;;;;4884101;29;20219;-72
2021/11/11 09:31:37;;;;;;;27.98;16.13;;;10.70;99.90;;;;;;4889442;29;20232;-72
2021/11/11 09:34:04;;;;;;;23.90;17.23;;;10.70;99.90;;;;;;4885188;29;20215;-72
2021/11/11 09:36:33;;;;;;;25.63;15.13;;;10.70;99.90;;;;;;4882095;29;20255;-72
2021/11/11 09:39:02;;;;;;;24.75;14.65;;;10.70;99.90;;;;;;4891274;29;20203;-72
2021/11/11 09:41:29;;;;;;;19.13;12.98;;;10.70;99.90;;;;;;4894960;29;20303;-72
2021/11/11 09:43:56;;;;;;;18.80;11.98;;;10.70;99.90;;;;;;4894996;29;20204;-72
2021/11/11 09:46:23;;;;;;;20.27;14.30;;;10.70;99.90;;;;;;4884653;29;20607;-72
2021/11/11 09:48:50;;;;;;;20.73;13.07;;;10.70;99.90;;;;;;4878385;29;20532;-72
2021/11/11 09:51:19;;;;;;;18.63;12.60;;;10.70;99.90;;;;;;4882674;29;20605;-72
2021/11/11 09:53:58;;;;;;;16.27;12.75;;;10.70;99.90;;;;;;4859313;29;20315;-71
2021/11/11 09:59:09;;;;;;;15.10;11.18;;;10.70;99.90;;;;;;4896062;29;20210;-73
2021/11/11 10:01:36;;;;;;;19.92;13.27;;;10.70;99.90;;;;;;4887738;29;20211;-73
2021/11/11 10:04:03;;;;;;;22.58;12.50;;;10.70;99.90;;;;;;4878087;29;20593;-73
2021/11/11 10:06:31;;;;;;;17.52;13.20;;;10.70;99.90;;;;;;4883042;29;20243;-73
2021/11/11 10:09:01;;;;;;;17.80;12.00;;;10.70;99.90;;;;;;4892551;29;20749;-74
2021/11/11 10:11:31;;;;;;;22.80;14.75;;;10.70;99.90;;;;;;4883591;29;20614;-73
2021/11/11 10:14:00;;;;;;;16.08;11.95;;;10.70;99.90;;;;;;4883999;29;20267;-73
2021/11/11 10:16:27;;;;;;;17.65;11.98;;;10.70;99.90;;;;;;4895446;29;20558;-73
2021/11/11 10:18:56;;;;;;;15.73;11.88;;;10.80;99.90;;;;;;4895240;29;20199;-73
2021/11/11 10:21:31;;;;;;;15.20;12.13;;;10.80;99.90;;;;;;4896003;29;20223;-73
2021/11/11 10:24:13;;;;;;;14.23;11.07;;;10.80;99.90;;;;;;4892240;29;20207;-73
2021/11/11 10:26:43;;;;;;;14.73;9.82;;;10.90;99.90;;;;;;4894669;29;20230;-73
2021/11/11 10:29:23;;;;;;;15.02;10.85;;;10.90;99.90;;;;;;4907472;29;20735;-73
2021/11/11 10:31:52;;;;;;;13.38;10.68;;;10.90;99.90;;;;;;4906979;29;20207;-73
2021/11/11 10:34:19;;;;;;;12.48;9.35;;;10.90;99.90;;;;;;4901660;29;20309;-73
2021/11/11 10:36:48;;;;;;;17.42;9.93;;;11.00;99.90;;;;;;4895640;29;20294;-70
2021/11/11 10:39:18;;;;;;;14.82;10.55;;;11.00;99.90;;;;;;4878328;29;20372;-67
2021/11/11 10:41:45;;;;;;;16.73;11.52;;;11.00;99.90;;;;;;4877194;29;20208;-68
2021/11/11 10:44:20;;;;;;;10.25;9.13;;;11.00;99.90;;;;;;4876603;29;20220;-68
2021/11/11 10:46:49;;;;;;;10.90;9.50;;;11.10;99.90;;;;;;4885467;29;20249;-72
2021/11/11 10:49:26;;;;;;;11.43;9.23;;;11.10;99.90;;;;;;4887807;29;20577;-69
2021/11/11 10:51:53;;;;;;;12.13;10.20;;;11.10;99.90;;;;;;4875234;29;20207;-69
2021/11/11 10:54:21;;;;;;;11.38;9.93;;;11.10;99.90;;;;;;4877331;29;20234;-69
2021/11/11 10:56:50;;;;;;;13.02;9.38;;;11.20;99.90;;;;;;4881546;29;20223;-68
2021/11/11 10:59:19;;;;;;;11.35;9.98;;;11.20;99.90;;;;;;4876902;29;20556;-68
2021/11/11 11:02:00;;;;;;;17.13;9.20;;;11.20;99.90;;;;;;4876080;29;20224;-67
2021/11/11 11:04:29;;;;;;;13.93;9.82;;;11.20;99.90;;;;;;4884769;29;20762;-67
2021/11/11 11:07:11;;;;;;;12.95;9.45;;;11.20;99.90;;;;;;4878101;29;20228;-67
2021/11/11 11:09:40;;;;;;;12.00;9.98;;;11.20;99.90;;;;;;4893920;29;20229;-68
2021/11/11 11:12:27;;;;;;;12.27;10.38;;;11.20;99.90;;;;;;4894002;29;20221;-68
2021/11/11 11:14:54;;;;;;;15.38;10.63;;;11.30;99.90;;;;;;4890253;29;20297;-69
2021/11/11 11:17:21;;;;;;;15.35;11.88;;;11.30;99.90;;;;;;4879704;29;20275;-71
2021/11/11 11:19:49;;;;;;;15.27;11.07;;;11.30;99.90;;;;;;4886904;29;20218;-69
2021/11/11 11:22:22;;;;;;;16.35;11.82;;;11.20;99.90;;;;;;4889330;29;20649;-68
2021/11/11 11:25:01;;;;;;;15.82;11.07;;;11.20;99.90;;;;;;4894189;29;20675;-73
2021/11/11 11:27:32;;;;;;;14.68;11.55;;;11.10;99.90;;;;;;4892706;29;20697;-73
2021/11/11 11:30:07;;;;;;;18.00;12.38;;;11.00;99.90;;;;;;4895866;29;20207;-73
2021/11/11 11:32:35;;;;;;;19.35;12.70;;;11.00;99.90;;;;;;4895232;29;20485;-73
2021/11/11 11:35:04;;;;;;;18.77;13.02;;;11.00;99.90;;;;;;4895486;29;20669;-74
2021/11/11 11:37:34;;;;;;;14.90;12.32;;;11.00;99.90;;;;;;4895248;29;20208;-74
2021/11/11 11:40:06;;;;;;;13.57;11.10;;;11.00;99.90;;;;;;4895588;29;20645;-74
2021/11/11 11:42:35;;;;;;;18.92;12.32;;;10.90;99.90;;;;;;4895029;29;20219;-74
2021/11/11 11:45:07;;;;;;;16.88;12.00;;;10.90;99.90;;;;;;4896087;29;20235;-73
2021/11/11 11:47:38;;;;;;;18.23;13.43;;;10.90;99.90;;;;;;4895319;29;20244;-74
2021/11/11 11:50:09;;;;;;;17.65;12.45;;;10.90;99.90;;;;;;4896297;29;20207;-74
2021/11/11 11:52:38;;;;;;;17.23;12.85;;;10.90;99.90;;;;;;4902338;29;20219;-73
2021/11/11 11:55:11;;;;;;;18.02;13.30;;;11.00;99.90;;;;;;4896884;29;20295;-74
2021/11/11 11:57:52;;;;;;;16.88;12.88;;;11.00;99.90;;;;;;4901018;29;20548;-74
2021/11/11 12:00:56;;;;;;;17.35;13.95;;;11.00;99.90;;;;;;4904855;29;20215;-74
2021/11/11 12:03:40;;;;;;;21.45;13.35;;;11.00;99.90;;;;;;4904069;29;20219;-74
2021/11/11 12:06:30;;;;;;;20.83;14.18;;;11.00;99.90;;;;;;4905948;29;20311;-74
2021/11/11 12:09:20;;;;;;;22.52;14.10;;;11.00;99.90;;;;;;4903338;29;20246;-74
2021/11/11 12:12:11;;;;;;;18.20;11.80;;;11.00;99.90;;;;;;4904426;29;20215;-74
2021/11/11 12:14:43;;;;;;;20.80;12.80;;;11.00;99.90;;;;;;4898286;29;20231;-74
2021/11/11 12:29:10;;;;;;;21.63;14.98;;;11.00;99.90;;;;;;4882236;29;20320;-74
2021/11/11 12:40:00;;;;;;;20.98;13.43;;;11.10;99.90;;;;;;4882265;29;20344;-74
2021/11/11 12:42:38;;;;;;;16.80;13.25;;;11.10;99.90;;;;;;4882590;29;20212;-74
2021/11/11 12:45:18;;;;;;;16.95;12.60;;;11.10;99.90;;;;;;4884254;29;20322;-74
2021/11/11 12:47:48;;;;;;;19.70;15.45;;;11.10;99.90;;;;;;4883857;29;20283;-74
2021/11/11 12:50:37;;;;;;;18.33;13.43;;;11.10;99.90;;;;;;4884669;29;20540;-74
2021/11/11 12:53:24;;;;;;;32.43;13.83;;;11.10;99.90;;;;;;4883976;29;20474;-74
2021/11/11 12:56:29;;;;;;;24.10;12.90;;;11.10;99.90;;;;;;4874527;29;20551;-74
2021/11/11 12:59:02;;;;;;;19.75;13.60;;;11.10;99.90;;;;;;4880111;29;20302;-74
2021/11/11 13:01:35;;;;;;;17.15;12.52;;;11.10;99.90;;;;;;4879951;29;20575;-74
2021/11/11 13:04:12;;;;;;;17.43;12.10;;;11.10;99.90;;;;;;4880112;29;20728;-74
2021/11/11 13:06:42;;;;;;;20.40;12.60;;;11.10;99.90;;;;;;4880232;29;20472;-74
2021/11/11 13:09:22;;;;;;;22.00;13.45;;;11.10;99.90;;;;;;4880363;29;20579;-74
2021/11/11 13:11:50;;;;;;;16.52;12.25;;;11.10;99.90;;;;;;4880961;29;20252;-73
2021/11/11 13:14:20;;;;;;;17.65;12.07;;;11.00;99.90;;;;;;4882348;29;20239;-74
2021/11/11 13:17:14;;;;;;;16.65;12.43;;;11.00;99.90;;;;;;4880798;29;20235;-74
2021/11/11 13:19:45;;;;;;;18.77;12.00;;;11.00;99.90;;;;;;4880730;29;20338;-73
2021/11/11 13:22:20;;;;;;;15.38;12.20;;;11.00;99.90;;;;;;4879990;29;20667;-74
2021/11/11 13:24:53;;;;;;;17.50;12.85;;;11.00;99.90;;;;;;4880591;29;20352;-74
2021/11/11 13:59:37;;;;;;;13.98;10.68;;;10.90;99.90;;;;;;4879388;29;20571;-73
2021/11/11 16:01:42;;;;;;;29.27;19.85;;;10.00;99.90;;;;;;4881054;29;20215;-74
2021/11/11 16:20:52;;;;;;;32.65;22.60;;;10.00;99.90;;;;;;4901738;29;20855;-74
2021/11/11 16:23:23;;;;;;;35.47;22.90;;;10.00;99.90;;;;;;4901735;29;20210;-74
2021/11/11 16:26:13;;;;;;;36.83;23.00;;;10.00;99.90;;;;;;4901113;29;20235;-73
2021/11/11 16:28:42;;;;;;;38.75;22.05;;;10.00;99.90;;;;;;4901670;29;20235;-73
2021/11/11 16:31:09;;;;;;;39.55;23.85;;;10.00;99.90;;;;;;4901444;29;20241;-74
2021/11/11 16:33:36;;;;;;;37.35;22.17;;;10.00;99.90;;;;;;4902634;29;20211;-73
2021/11/11 16:36:03;;;;;;;40.00;22.92;;;10.00;99.90;;;;;;4900966;29;20235;-73
2021/11/11 16:38:31;;;;;;;38.55;22.90;;;10.00;99.90;;;;;;4900465;29;20229;-74
2021/11/11 16:40:57;;;;;;;34.88;22.92;;;10.00;99.90;;;;;;4899096;29;20215;-73
2021/11/11 16:43:24;;;;;;;35.28;21.35;;;10.00;99.90;;;;;;4898834;29;20680;-73
2021/11/11 16:45:52;;;;;;;39.90;23.98;;;10.00;99.90;;;;;;4899360;29;20235;-74
2021/11/11 16:48:19;;;;;;;38.00;23.17;;;10.00;99.90;;;;;;4899352;29;20607;-74
2021/11/11 16:50:46;;;;;;;33.88;22.80;;;10.00;99.90;;;;;;4899657;29;20208;-73
2021/11/11 16:53:13;;;;;;;36.90;24.02;;;10.00;99.90;;;;;;4892709;29;20211;-73
2021/11/11 16:55:41;;;;;;;37.40;22.30;;;10.00;99.90;;;;;;4892930;29;20250;-74
2021/11/11 16:58:08;;;;;;;35.80;24.27;;;10.00;99.90;;;;;;4880754;29;20225;-73
2021/11/11 17:00:35;;;;;;;34.28;21.60;;;10.00;99.90;;;;;;4880293;29;20670;-73
2021/11/11 17:03:02;;;;;;;37.22;22.23;;;10.00;99.90;;;;;;4879404;29;20224;-73
2021/11/11 17:05:29;;;;;;;39.53;23.38;;;10.00;99.90;;;;;;4879356;29;20564;-73
2021/11/11 17:07:56;;;;;;;35.05;22.65;;;10.00;99.90;;;;;;4879791;29;20232;-73
2021/11/11 17:10:24;;;;;;;42.05;23.48;;;10.00;99.90;;;;;;4879789;29;20701;-73
2021/11/11 17:12:55;;;;;;;35.60;22.90;;;10.00;99.90;;;;;;4880171;29;20219;-74
2021/11/11 17:15:23;;;;;;;41.38;23.73;;;10.00;99.90;;;;;;4880463;29;20254;-74
2021/11/11 17:17:50;;;;;;;33.65;21.92;;;10.00;99.90;;;;;;4878864;29;20208;-74
2021/11/11 17:20:20;;;;;;;40.05;23.45;;;10.00;99.90;;;;;;4879463;29;20211;-73
2021/11/11 17:22:50;;;;;;;43.75;24.42;;;10.00;99.90;;;;;;4879887;29;20630;-74
2021/11/11 17:28:25;;;;;;;45.63;22.67;;;10.00;99.90;;;;;;4894094;29;20575;-74
2021/11/11 17:30:55;;;;;;;45.72;24.98;;;10.00;99.90;;;;;;4898181;29;20622;-73
2021/11/11 17:33:24;;;;;;;37.90;25.65;;;10.00;99.90;;;;;;4898728;29;20207;-74
2021/11/11 17:35:51;;;;;;;41.08;25.63;;;10.00;99.90;;;;;;4898373;29;20242;-74
2021/11/11 17:38:19;;;;;;;47.60;24.85;;;10.00;99.90;;;;;;4898105;29;20509;-73
2021/11/11 17:40:51;;;;;;;40.95;24.50;;;9.90;99.90;;;;;;4897705;29;20218;-73
2021/11/11 17:43:20;;;;;;;45.10;25.60;;;9.90;99.90;;;;;;4898453;29;20215;-73
2021/11/11 17:45:51;;;;;;;40.28;25.63;;;9.90;99.90;;;;;;4897885;29;20246;-73
2021/11/11 17:48:18;;;;;;;43.72;25.33;;;10.00;99.90;;;;;;4897553;29;20227;-73
2021/11/11 17:50:54;;;;;;;49.97;26.80;;;10.00;99.90;;;;;;4897755;29;20591;-74
2021/11/11 17:53:22;;;;;;;48.75;26.40;;;9.90;99.90;;;;;;4898212;29;20680;-73
2021/11/11 17:55:51;;;;;;;53.83;27.17;;;10.00;99.90;;;;;;4896656;29;20237;-73
2021/11/11 17:58:22;;;;;;;43.45;25.58;;;10.00;99.90;;;;;;4897943;29;20677;-73
2021/11/11 18:00:52;;;;;;;50.20;25.95;;;10.00;99.90;;;;;;4897940;29;20382;-74
2021/11/11 18:03:19;;;;;;;50.30;26.40;;;10.00;99.90;;;;;;4898054;29;20218;-73
2021/11/11 18:05:47;;;;;;;46.47;27.35;;;9.90;99.90;;;;;;4897691;29;20242;-73
2021/11/11 18:08:19;;;;;;;51.95;25.45;;;9.90;99.90;;;;;;4897524;29;20231;-73
2021/11/11 18:10:49;;;;;;;47.95;27.27;;;10.00;99.90;;;;;;4897314;29;20223;-73
2021/11/11 18:13:16;;;;;;;47.90;27.85;;;9.90;99.90;;;;;;4897898;29;20282;-74
2021/11/11 18:15:47;;;;;;;52.80;29.25;;;9.90;99.90;;;;;;4878812;29;20239;-74
2021/11/11 18:18:13;;;;;;;50.67;28.55;;;10.00;99.90;;;;;;4878448;29;20232;-74
2021/11/11 18:20:43;;;;;;;51.75;27.00;;;9.90;99.90;;;;;;4879328;29;20211;-74
2021/11/11 18:23:11;;;;;;;46.38;26.80;;;9.90;99.90;;;;;;4881107;29;20226;-74
2021/11/11 18:25:38;;;;;;;48.70;27.95;;;9.90;99.90;;;;;;4881338;29;20255;-74
2021/11/11 18:28:06;;;;;;;50.95;27.55;;;9.90;99.90;;;;;;4884508;29;20231;-74
2021/11/11 18:30:36;;;;;;;53.30;27.75;;;9.90;99.90;;;;;;4883737;29;20647;-74
2021/11/11 18:33:08;;;;;;;48.72;29.65;;;9.90;99.90;;;;;;4882590;29;20247;-74
2021/11/11 18:35:43;;;;;;;46.67;27.00;;;9.90;99.90;;;;;;4882639;29;20238;-74
2021/11/11 18:38:13;;;;;;;50.63;27.90;;;9.90;99.90;;;;;;4882293;29;20263;-74
2021/11/11 18:40:40;;;;;;;45.97;26.55;;;9.90;99.90;;;;;;4881776;29;20211;-72
2021/11/11 18:43:07;;;;;;;50.45;25.98;;;9.90;99.90;;;;;;4879853;29;20212;-74
2021/11/11 18:45:35;;;;;;;42.17;25.13;;;9.90;99.90;;;;;;4879680;29;20232;-73
2021/11/11 18:48:25;;;;;;;46.80;26.30;;;9.90;99.90;;;;;;4879715;29;20569;-73
2021/11/11 18:50:54;;;;;;;50.38;26.85;;;9.90;99.90;;;;;;4879834;29;20482;-74
2021/11/11 18:53:23;;;;;;;43.05;25.58;;;9.90;99.90;;;;;;4883256;29;20210;-73
2021/11/11 18:55:50;;;;;;;39.85;24.48;;;9.90;99.90;;;;;;4896460;29;20238;-72
2021/11/11 18:58:17;;;;;;;48.05;27.48;;;9.90;99.90;;;;;;4896720;29;20258;-73
2021/11/11 19:00:44;;;;;;;51.78;27.08;;;9.90;99.90;;;;;;4897599;29;20685;-74
2021/11/11 19:03:13;;;;;;;47.17;25.67;;;9.90;99.90;;;;;;4897308;29;20214;-74
2021/11/11 19:05:45;;;;;;;43.10;26.95;;;9.90;99.90;;;;;;4897743;29;20427;-73
2021/11/11 19:08:16;;;;;;;48.58;25.95;;;9.90;99.90;;;;;;4899634;29;20326;-73
2021/11/11 19:10:46;;;;;;;48.33;28.27;;;9.90;99.90;;;;;;4900788;29;20218;-73
2021/11/11 19:13:22;;;;;;;42.60;26.20;;;9.90;99.90;;;;;;4900686;29;20215;-73
2021/11/11 19:15:48;;;;;;;45.38;26.83;;;9.90;99.90;;;;;;4901957;29;20237;-74
2021/11/11 19:18:26;;;;;;;50.13;28.13;;;9.90;99.90;;;;;;4900732;29;20287;-74
2021/11/11 19:20:53;;;;;;;48.83;27.67;;;9.90;99.90;;;;;;4900647;29;20673;-73
2021/11/11 19:23:20;;;;;;;47.72;28.13;;;9.90;99.90;;;;;;4901377;29;20214;-72
2021/11/11 19:25:46;;;;;;;49.00;27.90;;;9.90;99.90;;;;;;4895177;29;20292;-73
2021/11/11 19:28:15;;;;;;;44.38;27.77;;;9.90;99.90;;;;;;4892960;29;20255;-73
2021/11/11 19:30:42;;;;;;;49.60;26.73;;;9.90;99.90;;;;;;4882736;29;20369;-74
2021/11/11 19:33:08;;;;;;;46.58;26.60;;;9.90;99.90;;;;;;4884138;29;20211;-74
2021/11/11 19:35:40;;;;;;;49.75;27.13;;;9.90;99.90;;;;;;4885247;29;20236;-75
2021/11/11 19:38:12;;;;;;;58.40;28.70;;;9.90;99.90;;;;;;4885215;29;20219;-75
2021/11/11 19:40:49;;;;;;;58.63;27.58;;;9.90;99.90;;;;;;4885015;29;20221;-75
2021/11/11 19:54:31;;;;;;;57.58;27.77;;;9.90;99.90;;;;;;4881801;29;20231;-72
2021/11/11 19:57:31;;;;;;;63.75;30.20;;;9.90;99.90;;;;;;4881291;29;20215;-73
2021/11/11 20:05:55;;;;;;;54.78;28.17;;;9.90;99.90;;;;;;4882793;29;20244;-74
2021/11/11 20:08:46;;;;;;;56.30;28.95;;;9.90;99.90;;;;;;4881911;29;20212;-74
2021/11/11 20:11:15;;;;;;;54.97;29.25;;;9.90;99.90;;;;;;4882402;29;20215;-75
2021/11/11 20:14:05;;;;;;;60.25;31.45;;;9.90;99.90;;;;;;4882335;29;20558;-74
2021/11/11 20:19:42;;;;;;;58.15;30.42;;;9.90;99.90;;;;;;4859358;29;20219;-74
2021/11/11 20:30:58;;;;;;;55.63;28.80;;;9.90;99.90;;;;;;4889853;29;20301;-75
2021/11/11 20:36:31;;;;;;;61.35;29.20;;;9.90;99.90;;;;;;4899698;29;20246;-74
2021/11/11 20:39:14;;;;;;;61.95;29.20;;;9.80;99.90;;;;;;4899886;29;20301;-74
2021/11/11 20:50:53;;;;;;;63.63;30.25;;;9.80;99.90;;;;;;4899989;29;20318;-75
2021/11/11 20:56:38;;;;;;;59.28;28.13;;;9.80;99.90;;;;;;4888313;29;20234;-74
2021/11/11 20:59:28;;;;;;;69.95;31.20;;;9.90;99.90;;;;;;4899366;29;20211;-75
2021/11/11 21:01:58;;;;;;;67.97;29.00;;;9.80;99.90;;;;;;4898771;29;20216;-74
2021/11/11 21:04:25;;;;;;;63.05;30.33;;;9.80;99.90;;;;;;4899359;29;20314;-74
2021/11/11 21:07:00;;;;;;;56.53;29.73;;;9.80;99.90;;;;;;4899065;29;20221;-74
2021/11/11 21:09:40;;;;;;;64.90;30.75;;;9.80;99.90;;;;;;4898645;29;20230;-73
2021/11/11 21:12:11;;;;;;;61.55;30.48;;;9.80;99.90;;;;;;4899604;29;20721;-73
2021/11/11 21:14:44;;;;;;;74.35;30.45;;;9.80;99.90;;;;;;4899038;29;20231;-73
2021/11/11 21:17:29;;;;;;;69.68;30.25;;;9.80;99.90;;;;;;4898634;29;20306;-73
2021/11/11 21:19:59;;;;;;;61.97;29.52;;;9.80;99.90;;;;;;4898876;29;20254;-74
2021/11/11 21:22:27;;;;;;;65.82;32.13;;;9.80;99.90;;;;;;4898675;29;20247;-74
2021/11/11 21:24:55;;;;;;;64.32;28.95;;;9.80;99.90;;;;;;4897615;29;20231;-73
2021/11/11 21:27:25;;;;;;;68.28;32.78;;;9.80;99.90;;;;;;4893725;29;20645;-73
2021/11/11 21:29:55;;;;;;;66.95;32.72;;;9.80;99.90;;;;;;4897835;29;20222;-74
2021/11/11 21:32:22;;;;;;;68.50;30.40;;;9.80;99.90;;;;;;4897815;29;20214;-73
2021/11/11 21:35:05;;;;;;;73.55;31.50;;;9.80;99.90;;;;;;4898605;29;20637;-74
2021/11/11 21:37:37;;;;;;;64.47;28.60;;;9.90;99.90;;;;;;4897621;29;20219;-73
2021/11/11 21:40:08;;;;;;;71.38;30.75;;;9.80;99.90;;;;;;4896875;29;20577;-72
2021/11/11 21:42:37;;;;;;;67.78;30.00;;;9.80;99.90;;;;;;4896161;29;20627;-72
2021/11/11 21:45:09;;;;;;;75.45;32.03;;;9.90;99.90;;;;;;4896628;29;20342;-72
2021/11/11 21:47:38;;;;;;;67.50;31.02;;;9.80;99.90;;;;;;4895826;29;20642;-72